Time;durP1;ratioP1;P1;durP2;ratioP2;P2;SDS_P1;SDS_P2;PMS_P1;PMS_P2;Temp;Humidity;BMP_temperature;BMP_pressure;BME280_temperature;BME280_humidity;BME280_pressure;Samples;Min_cycle;Max_cycle;Signal;HPM_P1;HPM_P2
2022/11/04 00:17:33;;;;;;;4.90;0.98;;;9.70;99.90;;;;;;21013468;28;20039;-78
2022/11/04 00:38:07;;;;;;;1.00;0.60;;;9.60;99.90;;;;;;20994685;28;20044;-78
2022/11/04 00:48:08;;;;;;;1.40;0.40;;;9.70;99.90;;;;;;21010726;28;20078;-78
2022/11/04 00:58:09;;;;;;;0.53;0.40;;;9.50;99.90;;;;;;21038409;28;20028;-78
2022/11/04 01:08:09;;;;;;;2.97;0.43;;;9.50;99.90;;;;;;21031081;28;20289;-78
2022/11/04 01:18:10;;;;;;;1.23;0.50;;;9.40;99.90;;;;;;21018136;28;20044;-78
2022/11/04 01:28:11;;;;;;;1.40;0.60;;;9.30;99.90;;;;;;21029007;28;20115;-78
2022/11/04 01:38:12;;;;;;;1.43;0.60;;;9.10;99.90;;;;;;21032236;28;20433;-78
2022/11/04 01:48:23;;;;;;;1.53;0.70;;;9.00;99.90;;;;;;21032268;28;20048;-78
2022/11/04 01:58:27;;;;;;;;;;;8.90;99.90;;;;;;21031987;28;20068;-79
2022/11/04 02:08:28;;;;;;;1.45;0.82;;;8.90;99.90;;;;;;21024986;28;19916;-78
2022/11/04 02:18:37;;;;;;;2.83;0.93;;;8.80;99.90;;;;;;21021455;28;20497;-78
2022/11/04 02:29:14;;;;;;;2.53;1.25;;;8.90;99.90;;;;;;21034791;28;20093;-78
2022/11/04 02:39:45;;;;;;;1.80;0.93;;;8.80;99.90;;;;;;21028756;28;20035;-78
2022/11/04 02:49:51;;;;;;;3.88;0.93;;;8.70;99.90;;;;;;21007533;28;20082;-78
2022/11/04 03:00:00;;;;;;;2.08;1.38;;;8.70;99.90;;;;;;21004969;28;20490;-78
2022/11/04 03:10:06;;;;;;;3.70;1.05;;;8.70;99.90;;;;;;21039689;28;20070;-78
2022/11/04 03:20:16;;;;;;;4.93;1.30;;;8.60;99.90;;;;;;21114307;28;20032;-79
2022/11/04 03:30:20;;;;;;;3.97;1.33;;;8.50;99.90;;;;;;21115414;28;20031;-78
2022/11/04 03:40:21;;;;;;;2.97;1.20;;;8.50;99.90;;;;;;21142837;28;20086;-78
2022/11/04 03:50:29;;;;;;;2.25;1.20;;;8.50;99.90;;;;;;21119179;28;20509;-79
2022/11/04 04:00:40;;;;;;;5.13;1.83;;;8.50;99.90;;;;;;21136094;28;20050;-79
2022/11/04 04:11:01;;;;;;;8.37;2.43;;;8.40;99.90;;;;;;21136308;28;20028;-79
2022/11/04 04:21:06;;;;;;;7.97;1.98;;;8.30;99.90;;;;;;21113998;28;20043;-78
2022/11/04 04:31:09;;;;;;;4.40;1.85;;;8.10;99.90;;;;;;21043968;28;20028;-78
2022/11/04 04:51:42;;;;;;;5.10;1.45;;;7.80;99.90;;;;;;21009362;28;20032;-78
2022/11/04 05:01:43;;;;;;;3.42;1.58;;;7.70;99.90;;;;;;21010850;28;20028;-78
2022/11/04 05:11:44;;;;;;;3.13;1.53;;;7.70;99.90;;;;;;20994918;28;20501;-78
2022/11/04 05:21:46;;;;;;;16.13;5.00;;;7.70;99.90;;;;;;21028353;28;20052;-79
2022/11/04 05:31:47;;;;;;;1.90;1.33;;;7.70;99.90;;;;;;21018294;28;20440;-78
2022/11/04 05:41:48;;;;;;;3.97;2.00;;;7.30;99.90;;;;;;20925374;28;20033;-77
2022/11/04 05:51:48;;;;;;;2.27;1.30;;;6.80;99.90;;;;;;20924242;28;20025;-78
2022/11/04 06:01:49;;;;;;;2.43;1.13;;;6.90;99.90;;;;;;20912697;28;20334;-78
2022/11/04 06:11:50;;;;;;;7.37;1.50;;;6.80;99.90;;;;;;20924027;28;20107;-78
2022/11/04 06:21:51;;;;;;;5.80;2.70;;;6.60;99.90;;;;;;20923858;28;20321;-79
2022/11/04 06:31:52;;;;;;;2.60;1.42;;;6.80;99.90;;;;;;21009415;28;20115;-79
2022/11/04 06:41:53;;;;;;;3.17;1.53;;;6.70;99.90;;;;;;20952861;28;20554;-79
2022/11/04 06:51:54;;;;;;;9.93;4.95;;;6.60;99.90;;;;;;20927471;28;20060;-79
2022/11/04 07:01:54;;;;;;;14.00;5.70;;;7.10;99.90;;;;;;20912611;28;20041;-79
2022/11/04 07:11:55;;;;;;;12.57;6.13;;;7.20;99.90;;;;;;20932061;28;20028;-79
2022/11/04 07:21:56;;;;;;;12.87;6.37;;;7.40;99.90;;;;;;20942782;28;20145;-79
2022/11/04 07:31:57;;;;;;;11.65;6.07;;;7.50;99.90;;;;;;20903332;28;20037;-80
2022/11/04 07:41:58;;;;;;;11.00;5.80;;;7.70;99.90;;;;;;20900841;28;20101;-80
2022/11/04 07:51:59;;;;;;;9.03;3.20;;;7.90;99.90;;;;;;20922407;28;20044;-78
2022/11/04 08:02:00;;;;;;;6.73;3.30;;;8.10;99.90;;;;;;20922199;28;20041;-80
2022/11/04 08:12:01;;;;;;;10.43;5.93;;;8.60;99.90;;;;;;20920869;28;20033;-80
2022/11/04 08:22:02;;;;;;;13.13;8.25;;;8.80;99.90;;;;;;20922989;28;20039;-80
2022/11/04 08:32:02;;;;;;;16.93;11.23;;;8.80;99.90;;;;;;20929417;28;20041;-79
2022/11/04 08:42:03;;;;;;;8.70;4.20;;;9.10;99.90;;;;;;20908991;28;20060;-81
2022/11/04 08:52:05;;;;;;;7.17;3.03;;;9.40;99.90;;;;;;20920172;28;20067;-79
2022/11/04 09:02:06;;;;;;;5.70;3.10;;;9.40;99.90;;;;;;20919814;22;20385;-79
2022/11/04 09:12:10;;;;;;;8.30;3.73;;;9.60;99.90;;;;;;21010473;28;20017;-79
2022/11/04 09:22:11;;;;;;;11.93;4.10;;;9.40;99.90;;;;;;21014621;28;20502;-78
2022/11/04 09:32:12;;;;;;;9.73;3.30;;;9.30;99.90;;;;;;21011541;28;20036;-78
2022/11/04 09:42:38;;;;;;;3.73;2.63;;;9.20;99.90;;;;;;20993312;28;20131;-78
2022/11/04 09:52:43;;;;;;;6.38;2.83;;;9.50;99.90;;;;;;21009915;28;20029;-79
2022/11/04 10:02:51;;;;;;;6.38;2.80;;;9.60;99.90;;;;;;20990199;28;20044;-78
2022/11/04 10:13:19;;;;;;;5.97;2.95;;;9.90;99.90;;;;;;21006754;28;20024;-79
2022/11/04 10:23:27;;;;;;;5.78;3.17;;;9.90;99.90;;;;;;21006975;28;20444;-79
2022/11/04 10:33:34;;;;;;;7.60;3.05;;;10.00;99.90;;;;;;20989052;28;20482;-78
2022/11/04 10:43:39;;;;;;;5.05;3.00;;;10.40;99.90;;;;;;20987518;28;20091;-78
2022/11/04 10:53:40;;;;;;;6.35;2.60;;;10.60;99.90;;;;;;21005590;28;20035;-78
2022/11/04 11:03:41;;;;;;;5.87;2.40;;;10.80;99.90;;;;;;20986008;28;20064;-78
2022/11/04 11:13:45;;;;;;;3.87;2.20;;;10.70;99.90;;;;;;20988313;28;20490;-79
2022/11/04 11:23:53;;;;;;;9.95;2.20;;;10.80;99.90;;;;;;20985150;28;20037;-79
2022/11/04 11:34:03;;;;;;;3.75;2.22;;;11.60;99.90;;;;;;20983923;28;20036;-78
2022/11/04 11:44:17;;;;;;;6.18;2.28;;;11.90;99.90;;;;;;20965467;28;20035;-79
2022/11/04 11:54:38;;;;;;;5.60;2.00;;;12.00;99.90;;;;;;20969687;28;20570;-77
2022/11/04 12:04:40;;;;;;;5.63;2.00;;;11.60;99.90;;;;;;21010922;28;20028;-78
2022/11/04 12:14:55;;;;;;;5.05;2.13;;;11.50;99.90;;;;;;20993676;28;20070;-78
2022/11/04 12:25:14;;;;;;;7.18;2.55;;;12.00;99.90;;;;;;20993375;28;20491;-78
2022/11/04 12:35:39;;;;;;;4.97;1.77;;;12.20;99.90;;;;;;21011505;28;20028;-78
2022/11/04 12:45:55;;;;;;;4.40;1.50;;;12.60;99.90;;;;;;21011220;28;20439;-78
2022/11/04 12:56:17;;;;;;;4.07;1.50;;;12.50;99.90;;;;;;20993777;28;20590;-78
2022/11/04 13:06:32;;;;;;;7.25;1.38;;;12.60;99.90;;;;;;20995474;28;20043;-78
2022/11/04 13:16:38;;;;;;;1.60;1.00;;;13.00;99.90;;;;;;21013824;28;20036;-78
2022/11/04 13:26:39;;;;;;;3.03;1.40;;;12.80;99.90;;;;;;20995312;28;20051;-78
2022/11/04 13:36:58;;;;;;;4.23;1.60;;;12.70;99.90;;;;;;20997634;28;20032;-78
2022/11/04 13:47:02;;;;;;;1.58;0.68;;;12.40;99.90;;;;;;21014271;28;20036;-78
2022/11/04 13:57:11;;;;;;;1.92;1.25;;;12.10;99.90;;;;;;20977442;28;20021;-78
2022/11/04 14:07:17;;;;;;;9.98;4.57;;;12.10;99.90;;;;;;20827192;28;20044;-78
2022/11/04 14:17:33;;;;;;;2.83;1.27;;;12.00;99.90;;;;;;20832321;28;20040;-78
2022/11/04 14:27:40;;;;;;;3.60;0.95;;;11.20;99.90;;;;;;20910736;28;20063;-78
2022/11/04 14:37:41;;;;;;;3.60;2.28;;;10.90;99.90;;;;;;20905352;28;20041;-78
2022/11/04 14:47:45;;;;;;;;;;;10.10;99.90;;;;;;20957068;28;20025;-78
2022/11/04 14:57:49;;;;;;;4.22;1.65;;;9.70;99.90;;;;;;20879667;28;20383;-78
2022/11/04 15:07:50;;;;;;;2.15;1.08;;;9.70;99.90;;;;;;20917437;22;20529;-77
2022/11/04 15:17:51;;;;;;;2.93;2.17;;;9.60;99.90;;;;;;20964335;28;20028;-77
2022/11/04 15:27:52;;;;;;;2.00;1.20;;;9.40;99.90;;;;;;20841289;28;20052;-77
2022/11/04 15:37:54;;;;;;;6.28;1.05;;;9.60;99.90;;;;;;20937692;28;20032;-77
2022/11/04 15:48:40;;;;;;;3.58;0.93;;;9.60;99.90;;;;;;20924125;28;20055;-77
2022/11/04 15:58:44;;;;;;;3.78;1.25;;;9.50;99.90;;;;;;20897280;28;20120;-78
2022/11/04 16:09:00;;;;;;;6.38;2.15;;;9.50;99.90;;;;;;20882811;28;20116;-77
2022/11/04 16:19:01;;;;;;;6.57;2.38;;;9.40;99.90;;;;;;20900265;28;20051;-78
2022/11/04 16:29:12;;;;;;;6.03;2.47;;;9.20;99.90;;;;;;20883513;28;20048;-77
2022/11/04 16:39:13;;;;;;;6.00;3.47;;;9.00;99.90;;;;;;20917653;28;20032;-78
2022/11/04 16:49:17;;;;;;;12.97;3.40;;;8.70;99.90;;;;;;20956584;28;20071;-76
2022/11/04 16:59:17;;;;;;;13.65;5.65;;;8.70;99.90;;;;;;20911148;28;20033;-77
2022/11/04 17:09:21;;;;;;;15.33;7.33;;;8.50;99.90;;;;;;20926287;28;20568;-77
2022/11/04 17:19:22;;;;;;;8.50;4.10;;;8.50;99.90;;;;;;20918815;28;20118;-78
2022/11/04 17:29:23;;;;;;;8.43;2.77;;;8.40;99.90;;;;;;20933174;28;20029;-77
2022/11/04 17:39:24;;;;;;;6.60;2.93;;;8.60;99.90;;;;;;20897348;28;20068;-78
2022/11/04 17:49:25;;;;;;;6.83;3.07;;;8.50;99.90;;;;;;20915064;28;20033;-77
2022/11/04 17:59:26;;;;;;;6.85;2.38;;;8.60;99.90;;;;;;20940607;28;20402;-77
2022/11/04 18:09:27;;;;;;;3.77;2.03;;;8.60;99.90;;;;;;20884742;28;20125;-77
2022/11/04 18:19:28;;;;;;;2.93;1.70;;;8.60;99.90;;;;;;20903227;28;20067;-77
2022/11/04 18:29:28;;;;;;;2.23;1.30;;;8.50;99.90;;;;;;20929137;28;20037;-77
2022/11/04 18:39:29;;;;;;;2.57;1.30;;;8.50;99.90;;;;;;20942852;28;20291;-77
2022/11/04 18:49:30;;;;;;;1.23;1.00;;;8.30;99.90;;;;;;20922221;28;20064;-76
2022/11/04 18:59:31;;;;;;;2.23;1.00;;;8.30;99.90;;;;;;20897672;28;20315;-76
2022/11/04 19:09:32;;;;;;;3.50;1.30;;;8.20;99.90;;;;;;20908856;28;20044;-76
2022/11/04 19:19:33;;;;;;;2.03;1.00;;;8.10;99.90;;;;;;20929759;28;20349;-77
2022/11/04 19:29:33;;;;;;;2.90;1.20;;;8.00;99.90;;;;;;20922521;28;20439;-78
2022/11/04 19:39:34;;;;;;;2.10;1.20;;;8.00;99.90;;;;;;20911491;28;20487;-77
2022/11/04 19:49:35;;;;;;;1.53;1.00;;;8.00;99.90;;;;;;20899331;28;20056;-77
2022/11/04 19:59:36;;;;;;;2.20;1.10;;;8.00;99.90;;;;;;20904262;28;20033;-77
2022/11/04 20:09:36;;;;;;;2.17;1.10;;;7.90;99.90;;;;;;20891800;28;20025;-77
2022/11/04 20:19:37;;;;;;;1.83;1.03;;;7.80;99.90;;;;;;20916993;28;20294;-76
2022/11/04 20:29:38;;;;;;;1.83;1.00;;;7.80;99.90;;;;;;20938549;28;20179;-77
2022/11/04 20:39:39;;;;;;;3.10;1.30;;;7.80;99.90;;;;;;20974520;28;20748;-77
2022/11/04 20:49:40;;;;;;;1.95;1.05;;;7.80;99.90;;;;;;20935677;28;20055;-77
2022/11/04 20:59:40;;;;;;;1.47;1.00;;;7.80;99.90;;;;;;20904044;28;20090;-78
2022/11/04 21:09:41;;;;;;;3.67;1.80;;;7.80;99.90;;;;;;21003168;22;20097;-79
2022/11/04 21:19:42;;;;;;;2.37;1.33;;;7.80;99.90;;;;;;20964263;28;20033;-79
2022/11/04 21:29:43;;;;;;;2.97;1.58;;;7.80;99.90;;;;;;20937608;28;20475;-79
2022/11/04 21:39:44;;;;;;;4.15;0.75;;;7.80;99.90;;;;;;20919329;28;20559;-78
2022/11/04 21:49:45;;;;;;;1.23;0.80;;;7.80;99.90;;;;;;20944425;28;20029;-78
2022/11/04 21:59:46;;;;;;;1.50;0.87;;;7.90;99.90;;;;;;20869626;28;20041;-79
2022/11/04 22:09:46;;;;;;;2.27;1.13;;;7.90;99.90;;;;;;20849053;28;20044;-79
2022/11/04 22:19:47;;;;;;;1.87;1.10;;;7.90;99.90;;;;;;20932302;28;20442;-79
2022/11/04 22:29:48;;;;;;;0.83;0.50;;;7.80;99.90;;;;;;20929957;28;20033;-79
2022/11/04 22:39:49;;;;;;;2.57;1.13;;;7.70;99.90;;;;;;20927295;28;20040;-78
2022/11/04 22:49:49;;;;;;;1.50;0.87;;;7.80;99.90;;;;;;20890306;28;20507;-79
2022/11/04 22:59:50;;;;;;;2.70;1.13;;;7.70;99.90;;;;;;20885616;28;20029;-79
2022/11/04 23:20:13;;;;;;;2.75;0.88;;;7.80;99.90;;;;;;20885191;28;20479;-79
2022/11/04 23:30:20;;;;;;;0.80;0.60;;;7.70;99.90;;;;;;20902351;28;20047;-79
2022/11/04 23:40:20;;;;;;;1.30;1.20;;;7.80;99.90;;;;;;20871485;28;20487;-79
